Time;durP1;ratioP1;P1;durP2;ratioP2;P2;SDS_P1;SDS_P2;PMS_P1;PMS_P2;Temp;Humidity;BMP_temperature;BMP_pressure;BME280_temperature;BME280_humidity;BME280_pressure;Samples;Min_cycle;Max_cycle;Signal;HPM_P1;HPM_P2
2023/07/28 00:00:30;;;;;;;0.90;0.32;;;17.70;99.90;;;;;;5006672;28;20073;-85
2023/07/28 00:02:55;;;;;;;0.70;0.40;;;17.80;99.90;;;;;;5000842;28;20041;-85
2023/07/28 00:05:21;;;;;;;0.85;0.50;;;17.70;99.90;;;;;;4998645;28;20038;-85
2023/07/28 00:07:47;;;;;;;0.82;0.52;;;17.80;99.90;;;;;;5005390;28;20038;-85
2023/07/28 00:10:12;;;;;;;0.70;0.20;;;17.70;99.90;;;;;;5006287;28;20041;-85
2023/07/28 00:12:38;;;;;;;0.32;0.15;;;17.80;99.90;;;;;;4985620;28;20110;-85
2023/07/28 00:15:04;;;;;;;0.35;0.20;;;17.70;99.90;;;;;;5002723;28;20048;-85
2023/07/28 00:17:30;;;;;;;1.20;0.38;;;17.70;99.90;;;;;;5004061;28;20046;-85
2023/07/28 00:19:56;;;;;;;0.75;0.45;;;17.70;99.90;;;;;;5004975;28;20046;-85
2023/07/28 00:22:22;;;;;;;0.40;0.28;;;17.70;99.90;;;;;;4993209;28;20050;-84
2023/07/28 00:24:47;;;;;;;0.70;0.22;;;17.70;99.90;;;;;;4987335;28;20072;-85
2023/07/28 00:27:14;;;;;;;0.40;0.38;;;17.70;99.90;;;;;;5005245;28;20080;-85
2023/07/28 00:29:41;;;;;;;0.95;0.30;;;17.70;99.90;;;;;;4989692;28;20050;-85
2023/07/28 00:32:10;;;;;;;1.02;0.50;;;17.80;99.90;;;;;;5002480;28;20042;-85
2023/07/28 00:34:36;;;;;;;0.25;0.20;;;17.70;99.90;;;;;;5003843;28;20111;-85
2023/07/28 00:37:01;;;;;;;0.45;0.20;;;17.70;99.90;;;;;;5004052;28;20486;-87
2023/07/28 00:39:27;;;;;;;0.73;0.35;;;17.70;99.90;;;;;;4994964;28;20041;-87
2023/07/28 00:41:53;;;;;;;0.52;0.35;;;17.80;99.90;;;;;;4992378;28;20038;-86
2023/07/28 00:44:21;;;;;;;1.15;0.35;;;17.70;99.90;;;;;;4977114;28;20038;-87
2023/07/28 00:46:48;;;;;;;0.60;0.30;;;17.70;99.90;;;;;;4987428;28;20042;-87
2023/07/28 00:49:13;;;;;;;1.00;0.47;;;17.70;99.90;;;;;;4993125;28;20069;-87
2023/07/28 00:51:40;;;;;;;0.82;0.50;;;17.70;99.90;;;;;;4994068;28;20037;-86
2023/07/28 00:54:06;;;;;;;0.68;0.47;;;17.70;99.90;;;;;;4995010;28;20046;-86
2023/07/28 00:56:32;;;;;;;0.93;0.30;;;17.70;99.90;;;;;;4978491;28;20128;-87
2023/07/28 00:58:58;;;;;;;1.58;0.60;;;17.70;99.90;;;;;;4996712;28;20169;-86
2023/07/28 01:01:24;;;;;;;1.38;0.75;;;17.70;99.90;;;;;;4995220;28;20068;-86
2023/07/28 01:03:50;;;;;;;0.47;0.30;;;17.70;99.90;;;;;;4981719;28;20041;-86
2023/07/28 01:06:57;;;;;;;2.30;0.43;;;17.70;99.90;;;;;;4981275;28;20073;-86
2023/07/28 01:09:28;;;;;;;1.42;0.60;;;17.70;99.90;;;;;;5013191;28;20045;-86
2023/07/28 01:11:55;;;;;;;0.95;0.43;;;17.70;99.90;;;;;;4982220;28;20058;-87
2023/07/28 01:14:21;;;;;;;0.95;0.47;;;17.70;99.90;;;;;;4998107;28;20034;-87
2023/07/28 01:16:47;;;;;;;4.43;0.30;;;17.70;99.90;;;;;;4996687;28;20540;-87
2023/07/28 01:19:14;;;;;;;0.95;0.45;;;17.70;99.90;;;;;;4982349;28;20041;-86
2023/07/28 01:21:43;;;;;;;1.05;0.30;;;17.70;99.90;;;;;;4982041;28;20398;-86
2023/07/28 01:24:31;;;;;;;0.90;0.30;;;17.70;99.90;;;;;;4998216;28;20081;-86
2023/07/28 01:26:56;;;;;;;1.20;0.68;;;17.70;99.90;;;;;;4997385;28;20041;-86
2023/07/28 01:29:23;;;;;;;0.77;0.47;;;17.70;99.90;;;;;;4981548;28;20068;-86
2023/07/28 01:31:51;;;;;;;1.08;0.70;;;17.70;99.90;;;;;;4980143;28;20046;-86
2023/07/28 01:34:17;;;;;;;1.38;0.77;;;17.70;99.90;;;;;;4983710;28;20049;-86
2023/07/28 01:36:43;;;;;;;1.95;0.77;;;17.70;99.90;;;;;;4996069;28;20033;-86
2023/07/28 01:39:08;;;;;;;2.85;0.60;;;17.70;99.90;;;;;;4980916;28;20096;-85
2023/07/28 01:41:34;;;;;;;0.90;0.50;;;17.70;99.90;;;;;;4997137;28;20458;-86
2023/07/28 01:44:00;;;;;;;0.98;0.50;;;17.70;99.90;;;;;;4980995;28;20029;-86
2023/07/28 01:46:25;;;;;;;2.10;0.73;;;17.70;99.90;;;;;;4996819;28;20104;-86
2023/07/28 01:48:51;;;;;;;1.00;0.73;;;17.70;99.90;;;;;;4997093;28;20121;-86
2023/07/28 01:51:17;;;;;;;1.38;0.75;;;17.70;99.90;;;;;;4979607;28;20038;-86
2023/07/28 01:53:43;;;;;;;0.85;0.63;;;17.70;99.90;;;;;;4997055;28;20469;-86
2023/07/28 01:56:09;;;;;;;0.93;0.40;;;17.80;99.90;;;;;;4996672;28;20042;-85
2023/07/28 01:58:34;;;;;;;0.68;0.50;;;17.70;99.90;;;;;;4981986;28;20462;-86
2023/07/28 02:01:00;;;;;;;1.23;0.65;;;17.70;99.90;;;;;;4980870;28;20042;-86
2023/07/28 02:03:26;;;;;;;1.00;0.50;;;17.70;99.90;;;;;;4980644;28;20061;-86
2023/07/28 02:05:52;;;;;;;1.85;0.50;;;17.70;99.90;;;;;;4996664;28;20069;-86
2023/07/28 02:08:18;;;;;;;1.15;0.50;;;17.70;99.90;;;;;;4980586;28;20509;-85
2023/07/28 02:10:45;;;;;;;1.38;0.63;;;17.70;99.90;;;;;;5012391;28;20054;-86
2023/07/28 02:13:10;;;;;;;1.15;0.77;;;17.70;99.90;;;;;;4993438;28;20233;-86
2023/07/28 02:15:36;;;;;;;1.13;0.70;;;17.70;99.90;;;;;;4987416;28;20069;-86
2023/07/28 02:18:02;;;;;;;1.15;0.55;;;17.70;99.90;;;;;;4996424;28;20044;-86
2023/07/28 02:20:28;;;;;;;1.55;0.95;;;17.70;99.90;;;;;;4986796;28;20137;-86
2023/07/28 02:22:53;;;;;;;0.65;0.38;;;17.70;99.90;;;;;;4997469;28;20383;-86
2023/07/28 02:25:19;;;;;;;1.40;0.75;;;17.70;99.90;;;;;;4980698;28;20517;-86
2023/07/28 02:27:45;;;;;;;0.68;0.32;;;17.70;99.90;;;;;;4996510;28;20041;-86
2023/07/28 02:30:10;;;;;;;1.02;0.60;;;17.70;99.90;;;;;;4977297;28;20052;-86
2023/07/28 02:32:37;;;;;;;1.20;0.70;;;17.70;99.90;;;;;;4983758;28;20042;-85
2023/07/28 02:35:03;;;;;;;0.60;0.40;;;17.70;99.90;;;;;;4995700;28;20045;-85
2023/07/28 02:37:28;;;;;;;1.27;0.50;;;17.70;99.90;;;;;;4980582;28;20112;-86
2023/07/28 02:39:54;;;;;;;0.60;0.43;;;17.70;99.90;;;;;;4995424;28;20467;-85
2023/07/28 02:42:20;;;;;;;0.98;0.50;;;17.70;99.90;;;;;;4994229;28;20371;-86
2023/07/28 02:44:46;;;;;;;1.08;0.70;;;17.70;99.90;;;;;;4996442;28;20037;-86
2023/07/28 02:47:11;;;;;;;0.35;0.25;;;17.70;99.90;;;;;;4985700;28;20092;-86
2023/07/28 02:49:37;;;;;;;0.55;0.22;;;17.70;99.90;;;;;;5012376;28;20132;-85
2023/07/28 02:52:03;;;;;;;0.57;0.40;;;17.70;99.90;;;;;;4995585;28;20091;-85
2023/07/28 02:54:29;;;;;;;0.63;0.30;;;17.70;99.90;;;;;;4996478;28;20073;-85
2023/07/28 02:56:55;;;;;;;1.33;0.68;;;17.70;99.90;;;;;;4979738;28;20073;-86
2023/07/28 02:59:22;;;;;;;0.47;0.40;;;17.70;99.90;;;;;;4996136;28;20390;-86
2023/07/28 03:01:51;;;;;;;2.08;0.82;;;17.70;99.90;;;;;;4994643;28;20368;-86
2023/07/28 03:04:20;;;;;;;0.93;0.63;;;17.70;99.90;;;;;;4979716;28;20041;-86
2023/07/28 03:06:46;;;;;;;1.45;0.75;;;17.70;99.90;;;;;;4979159;28;20041;-86
2023/07/28 03:09:12;;;;;;;1.00;0.65;;;17.70;99.90;;;;;;4995502;28;20176;-86
2023/07/28 03:11:38;;;;;;;2.58;0.70;;;17.70;99.90;;;;;;4994970;28;20110;-85
2023/07/28 03:14:04;;;;;;;0.90;0.50;;;17.70;99.90;;;;;;4995048;28;20579;-85
2023/07/28 03:16:29;;;;;;;0.98;0.50;;;17.70;99.90;;;;;;4976871;28;20068;-85
2023/07/28 03:18:57;;;;;;;1.10;0.55;;;17.70;99.90;;;;;;4996020;28;20069;-86
2023/07/28 03:21:23;;;;;;;4.80;0.70;;;17.70;99.90;;;;;;4983083;28;20041;-86
2023/07/28 03:23:49;;;;;;;0.82;0.47;;;17.70;99.90;;;;;;4979527;28;20402;-85
2023/07/28 03:26:14;;;;;;;1.25;0.55;;;17.70;99.90;;;;;;4978456;28;20038;-85
2023/07/28 03:28:40;;;;;;;3.78;0.47;;;17.70;99.90;;;;;;4979412;28;20552;-86
2023/07/28 03:31:09;;;;;;;1.05;0.47;;;17.70;99.90;;;;;;4978559;28;20046;-86
2023/07/28 03:33:34;;;;;;;0.70;0.50;;;17.70;99.90;;;;;;4995225;28;20137;-85
2023/07/28 03:36:00;;;;;;;0.70;0.50;;;17.70;99.90;;;;;;4994785;28;20137;-85
2023/07/28 03:38:26;;;;;;;0.60;0.32;;;17.70;99.90;;;;;;4977899;28;20046;-86
2023/07/28 03:40:51;;;;;;;1.38;0.65;;;17.70;99.90;;;;;;4994453;28;20095;-85
2023/07/28 03:43:17;;;;;;;0.57;0.50;;;17.70;99.90;;;;;;4994592;28;20038;-86
2023/07/28 03:45:43;;;;;;;1.48;0.90;;;17.70;99.90;;;;;;4977438;28;20489;-86
2023/07/28 03:48:09;;;;;;;1.35;0.47;;;17.80;99.90;;;;;;4976410;28;20031;-86
2023/07/28 03:50:34;;;;;;;0.90;0.43;;;17.80;99.90;;;;;;4983498;28;20107;-85
2023/07/28 03:53:00;;;;;;;0.55;0.30;;;17.80;99.90;;;;;;4994855;28;20383;-86
2023/07/28 03:55:26;;;;;;;0.68;0.50;;;17.80;99.90;;;;;;4978771;28;20069;-85
2023/07/28 03:57:52;;;;;;;1.02;0.60;;;17.80;99.90;;;;;;4994637;28;20409;-86
2023/07/28 04:00:17;;;;;;;0.55;0.28;;;17.80;99.90;;;;;;4984049;28;20034;-86
2023/07/28 04:02:43;;;;;;;1.38;0.68;;;17.80;99.90;;;;;;4980355;28;20038;-86
2023/07/28 04:05:09;;;;;;;1.30;0.60;;;17.80;99.90;;;;;;4994534;28;20515;-85
2023/07/28 04:07:35;;;;;;;1.30;0.70;;;17.80;99.90;;;;;;4978177;28;20050;-85
2023/07/28 04:10:01;;;;;;;1.75;0.75;;;17.80;99.90;;;;;;4983021;28;20395;-85
2023/07/28 04:12:26;;;;;;;0.90;0.63;;;17.80;99.90;;;;;;4973026;28;20050;-85
2023/07/28 04:14:52;;;;;;;0.65;0.43;;;17.80;99.90;;;;;;4994320;28;20053;-86
2023/07/28 04:17:21;;;;;;;0.90;0.50;;;17.80;99.90;;;;;;4993481;28;20044;-86
2023/07/28 04:19:46;;;;;;;1.35;0.60;;;17.80;99.90;;;;;;4994051;28;20080;-85
2023/07/28 04:22:13;;;;;;;1.10;0.60;;;17.80;99.90;;;;;;4977671;28;20077;-86
2023/07/28 04:24:38;;;;;;;1.48;0.70;;;17.80;99.90;;;;;;4979067;28;20038;-85
2023/07/28 04:27:05;;;;;;;1.33;0.70;;;17.80;99.90;;;;;;4977488;28;20041;-86
2023/07/28 04:29:30;;;;;;;0.50;0.40;;;17.80;99.90;;;;;;4994242;28;20042;-85
2023/07/28 04:31:56;;;;;;;1.42;0.75;;;17.80;99.90;;;;;;4982757;28;20034;-86
2023/07/28 04:34:22;;;;;;;1.17;0.70;;;17.80;99.90;;;;;;4978671;28;20046;-86
2023/07/28 04:36:48;;;;;;;1.50;0.70;;;17.80;99.90;;;;;;4980322;28;20034;-86
2023/07/28 04:39:13;;;;;;;1.17;0.65;;;17.90;99.90;;;;;;4998328;28;20053;-86
2023/07/28 04:41:39;;;;;;;0.75;0.40;;;17.80;99.90;;;;;;4981984;28;20036;-86
2023/07/28 04:44:05;;;;;;;1.75;0.70;;;17.80;99.90;;;;;;4980637;28;20378;-86
2023/07/28 04:46:31;;;;;;;1.45;0.57;;;17.90;99.90;;;;;;4997274;28;20132;-86
2023/07/28 04:48:57;;;;;;;1.67;0.77;;;17.90;99.90;;;;;;4997688;28;20045;-86
2023/07/28 04:51:22;;;;;;;1.00;0.68;;;17.80;99.90;;;;;;4998068;28;20417;-86
2023/07/28 04:53:48;;;;;;;1.20;0.50;;;17.90;99.90;;;;;;4983525;28;20153;-86
2023/07/28 04:56:14;;;;;;;1.50;0.70;;;17.90;99.90;;;;;;4997977;28;20093;-86
2023/07/28 04:58:47;;;;;;;0.43;0.40;;;17.80;99.90;;;;;;4997683;28;20038;-86
2023/07/28 05:01:13;;;;;;;1.33;0.47;;;17.80;99.90;;;;;;4997557;28;20041;-86
2023/07/28 05:03:38;;;;;;;1.10;0.55;;;17.90;99.90;;;;;;4982347;28;20084;-86
2023/07/28 05:06:05;;;;;;;1.23;0.60;;;17.90;99.90;;;;;;4981938;28;20049;-86
2023/07/28 05:08:31;;;;;;;1.23;0.80;;;17.90;99.90;;;;;;4998027;28;20045;-86
2023/07/28 05:10:57;;;;;;;1.88;0.68;;;17.90;99.90;;;;;;4977735;28;20050;-86
2023/07/28 05:13:22;;;;;;;0.88;0.47;;;17.90;99.90;;;;;;4978601;28;20077;-86
2023/07/28 05:15:48;;;;;;;2.13;1.00;;;17.90;99.90;;;;;;4961693;28;20148;-86
2023/07/28 05:18:14;;;;;;;1.33;0.65;;;17.90;99.90;;;;;;4976034;28;20052;-86
2023/07/28 05:20:40;;;;;;;1.30;0.70;;;17.90;99.90;;;;;;4961952;28;20046;-86
2023/07/28 05:23:06;;;;;;;1.38;0.60;;;18.00;99.90;;;;;;4957691;28;20038;-86
2023/07/28 05:25:31;;;;;;;1.40;0.98;;;18.00;99.90;;;;;;4977393;28;20093;-86
2023/07/28 05:27:57;;;;;;;2.80;0.88;;;18.00;99.90;;;;;;4960844;28;20046;-86
2023/07/28 05:30:23;;;;;;;1.48;0.68;;;17.90;99.90;;;;;;4978552;28;20046;-86
2023/07/28 05:32:48;;;;;;;1.08;0.82;;;18.00;99.90;;;;;;4976186;28;20053;-86
2023/07/28 05:35:17;;;;;;;1.88;1.00;;;18.00;99.90;;;;;;4977352;28;20202;-86
2023/07/28 05:37:43;;;;;;;1.20;0.70;;;18.00;99.90;;;;;;4977501;28;20053;-86
2023/07/28 05:40:09;;;;;;;2.42;0.93;;;18.00;99.90;;;;;;4975755;28;20042;-86
2023/07/28 05:42:35;;;;;;;0.80;0.60;;;18.10;99.90;;;;;;4977468;28;20042;-86
2023/07/28 05:45:01;;;;;;;0.98;0.60;;;18.00;99.90;;;;;;4962427;28;20043;-86
2023/07/28 05:47:27;;;;;;;1.25;0.90;;;18.00;99.90;;;;;;4960131;28;20101;-86
2023/07/28 05:49:53;;;;;;;1.35;0.80;;;18.10;99.90;;;;;;4961649;28;20045;-86
2023/07/28 05:52:20;;;;;;;1.42;0.93;;;18.10;99.90;;;;;;4961005;28;20066;-86
2023/07/28 05:54:45;;;;;;;2.20;0.65;;;18.10;99.90;;;;;;4978675;28;20038;-86
2023/07/28 05:57:12;;;;;;;0.82;0.68;;;18.10;99.90;;;;;;4963065;28;20392;-86
2023/07/28 05:59:38;;;;;;;1.88;0.90;;;18.10;99.90;;;;;;4977177;28;20047;-85
2023/07/28 06:02:04;;;;;;;1.25;0.68;;;18.10;99.90;;;;;;4960097;28;20064;-86
2023/07/28 06:04:29;;;;;;;2.38;0.90;;;18.10;99.90;;;;;;4994338;28;20070;-86
2023/07/28 06:06:55;;;;;;;1.50;0.60;;;18.10;99.90;;;;;;4961236;28;20183;-86
2023/07/28 06:09:21;;;;;;;1.08;0.63;;;18.20;99.90;;;;;;4962026;28;20045;-86
2023/07/28 06:11:47;;;;;;;1.90;0.95;;;18.30;99.90;;;;;;4983133;28;20093;-86
2023/07/28 06:14:12;;;;;;;0.98;0.60;;;18.30;99.90;;;;;;4990641;28;20050;-86
2023/07/28 06:16:38;;;;;;;1.63;0.50;;;18.30;99.90;;;;;;4992267;28;20042;-86
2023/07/28 06:19:04;;;;;;;0.68;0.40;;;18.30;99.90;;;;;;4993581;28;20046;-85
2023/07/28 06:21:30;;;;;;;1.23;0.75;;;18.40;99.90;;;;;;4993399;28;20038;-86
2023/07/28 06:23:55;;;;;;;1.38;0.95;;;18.50;99.90;;;;;;4988501;28;20038;-86
2023/07/28 06:26:21;;;;;;;0.60;0.60;;;18.50;99.90;;;;;;4975457;28;20087;-86
2023/07/28 06:28:47;;;;;;;2.00;0.65;;;18.60;99.90;;;;;;4993241;28;20041;-85
2023/07/28 06:31:12;;;;;;;2.75;1.13;;;18.60;99.90;;;;;;4991422;28;21090;-85
2023/07/28 06:33:38;;;;;;;1.30;0.90;;;18.60;99.90;;;;;;4992241;28;20053;-86
2023/07/28 06:36:04;;;;;;;1.13;0.70;;;18.70;99.90;;;;;;4976500;28;20042;-85
2023/07/28 06:38:30;;;;;;;1.60;0.88;;;18.70;99.90;;;;;;4993491;28;20088;-85
2023/07/28 06:40:56;;;;;;;1.15;0.55;;;18.70;99.90;;;;;;4995080;28;20077;-85
2023/07/28 06:43:22;;;;;;;0.35;0.35;;;18.80;99.90;;;;;;4993384;28;20469;-86
2023/07/28 06:45:51;;;;;;;0.90;0.60;;;18.80;99.90;;;;;;5008229;28;20038;-85
2023/07/28 06:48:17;;;;;;;1.45;0.60;;;18.80;99.90;;;;;;4990330;28;20125;-86
2023/07/28 06:50:43;;;;;;;0.77;0.50;;;18.80;99.90;;;;;;4992663;28;20085;-86
2023/07/28 06:53:09;;;;;;;1.17;0.52;;;18.80;99.90;;;;;;4992600;28;20465;-86
2023/07/28 06:55:35;;;;;;;1.00;0.63;;;18.80;99.90;;;;;;4993040;28;20406;-86
2023/07/28 06:58:01;;;;;;;0.90;0.43;;;18.80;99.90;;;;;;4992803;28;20078;-86
2023/07/28 07:00:26;;;;;;;0.85;0.50;;;18.80;99.90;;;;;;4986103;28;20088;-86
2023/07/28 07:02:52;;;;;;;1.75;0.95;;;18.90;99.90;;;;;;4992837;28;20039;-86
2023/07/28 07:05:18;;;;;;;0.90;0.57;;;18.90;99.90;;;;;;4974852;28;20096;-86
2023/07/28 07:07:44;;;;;;;0.98;0.65;;;19.00;99.90;;;;;;4975397;28;20514;-86
2023/07/28 07:10:10;;;;;;;1.60;0.93;;;19.00;99.90;;;;;;4988516;28;20504;-85
2023/07/28 07:12:36;;;;;;;3.38;0.80;;;19.10;99.90;;;;;;4974989;28;20104;-85
2023/07/28 07:15:02;;;;;;;1.10;0.70;;;19.10;99.90;;;;;;4992244;28;20050;-85
2023/07/28 07:17:28;;;;;;;1.20;0.68;;;19.10;99.90;;;;;;4992081;28;20137;-86
2023/07/28 07:19:54;;;;;;;1.27;0.80;;;19.10;99.90;;;;;;4992665;28;20050;-85
2023/07/28 07:22:20;;;;;;;1.17;0.60;;;19.20;99.90;;;;;;4992233;28;20042;-86
2023/07/28 07:24:45;;;;;;;0.47;0.38;;;19.10;99.90;;;;;;4976257;28;20042;-86
2023/07/28 07:27:11;;;;;;;0.77;0.60;;;19.10;99.90;;;;;;4975593;28;20517;-86
2023/07/28 07:29:40;;;;;;;1.05;0.57;;;19.10;99.90;;;;;;4969453;28;20074;-86
2023/07/28 07:32:07;;;;;;;0.77;0.60;;;19.10;99.90;;;;;;4988414;28;20046;-86
2023/07/28 07:34:34;;;;;;;0.77;0.60;;;19.20;99.90;;;;;;4975747;28;20042;-86
2023/07/28 07:37:01;;;;;;;1.77;0.52;;;19.20;99.90;;;;;;4976065;28;20474;-85
2023/07/28 07:39:26;;;;;;;1.25;0.70;;;19.30;99.90;;;;;;4974282;28;20498;-85
2023/07/28 07:41:52;;;;;;;1.10;0.80;;;19.30;99.90;;;;;;4990337;28;20054;-87
2023/07/28 07:44:18;;;;;;;1.60;0.90;;;19.40;99.90;;;;;;4982602;28;20482;-86
2023/07/28 07:46:44;;;;;;;0.93;0.75;;;19.50;99.90;;;;;;4974246;28;20034;-86
2023/07/28 07:49:09;;;;;;;1.25;0.63;;;19.50;99.90;;;;;;4975757;28;20034;-86
2023/07/28 07:51:35;;;;;;;1.02;0.73;;;19.60;99.90;;;;;;4985852;28;20197;-86
2023/07/28 07:54:01;;;;;;;1.13;0.88;;;19.50;99.90;;;;;;4976184;28;20042;-86
2023/07/28 07:56:27;;;;;;;2.22;0.70;;;19.60;99.90;;;;;;4974978;28;20125;-86
2023/07/28 07:58:53;;;;;;;1.17;0.57;;;19.60;99.90;;;;;;4991347;28;20050;-87
2023/07/28 08:01:19;;;;;;;1.00;0.63;;;19.70;99.90;;;;;;4972149;28;20546;-86
2023/07/28 08:03:44;;;;;;;1.77;0.93;;;19.80;99.90;;;;;;4990335;28;20034;-86
2023/07/28 08:06:12;;;;;;;0.98;0.60;;;20.00;99.90;;;;;;4975094;28;20102;-87
2023/07/28 08:08:38;;;;;;;2.08;1.02;;;20.20;99.90;;;;;;4991735;28;20045;-86
2023/07/28 08:11:05;;;;;;;3.03;0.70;;;20.40;99.90;;;;;;4991379;28;20050;-86
2023/07/28 08:13:31;;;;;;;0.98;0.45;;;20.60;99.90;;;;;;4975415;28;20130;-86
2023/07/28 08:15:57;;;;;;;1.65;1.02;;;20.80;99.90;;;;;;4975302;28;20133;-87
2023/07/28 08:18:22;;;;;;;1.55;0.45;;;20.90;99.90;;;;;;4996020;28;20085;-86
2023/07/28 08:20:48;;;;;;;1.95;0.52;;;21.00;99.90;;;;;;4995534;28;20042;-86
2023/07/28 08:23:14;;;;;;;0.80;0.47;;;21.00;99.90;;;;;;4996411;28;20402;-87
2023/07/28 08:25:40;;;;;;;2.17;0.73;;;21.00;99.90;;;;;;4979134;28;20042;-86
2023/07/28 08:28:06;;;;;;;10.30;0.68;;;21.10;99.90;;;;;;4995810;28;20251;-87
2023/07/28 08:30:32;;;;;;;1.13;0.38;;;21.20;99.90;;;;;;4979362;28;20072;-87
2023/07/28 08:32:58;;;;;;;0.80;0.47;;;21.40;99.90;;;;;;4979700;28;20513;-87
2023/07/28 08:35:24;;;;;;;0.47;0.30;;;21.60;99.90;;;;;;4979272;28;20328;-87
2023/07/28 08:37:49;;;;;;;5.72;2.78;;;21.70;99.90;;;;;;4998412;28;20047;-86
2023/07/28 08:40:16;;;;;;;1.58;1.13;;;21.70;99.90;;;;;;4992869;28;20046;-86
2023/07/28 08:42:45;;;;;;;0.55;0.40;;;21.70;99.90;;;;;;5010613;28;20031;-87
2023/07/28 08:45:10;;;;;;;0.40;0.30;;;21.70;99.90;;;;;;4993612;28;20060;-87
2023/07/28 08:47:37;;;;;;;0.22;0.20;;;21.70;99.90;;;;;;4994568;28;20098;-87
2023/07/28 08:50:03;;;;;;;1.10;0.55;;;21.70;99.90;;;;;;4988305;28;20077;-87
2023/07/28 08:52:29;;;;;;;3.80;1.25;;;22.00;99.90;;;;;;4977275;28;20105;-87
2023/07/28 08:54:55;;;;;;;0.95;0.50;;;22.20;99.90;;;;;;4995611;28;20441;-88
2023/07/28 08:57:20;;;;;;;0.68;0.45;;;22.40;99.90;;;;;;4978356;28;20125;-87
2023/07/28 08:59:50;;;;;;;0.38;0.28;;;22.40;99.90;;;;;;4983906;28;20122;-87
2023/07/28 09:02:17;;;;;;;2.72;0.60;;;22.40;99.90;;;;;;4978106;28;20035;-88
2023/07/28 09:04:44;;;;;;;0.82;0.30;;;22.50;99.90;;;;;;4978787;28;20121;-88
2023/07/28 09:07:10;;;;;;;0.60;0.20;;;22.80;99.90;;;;;;4987056;28;20073;-88
2023/07/28 09:09:40;;;;;;;0.38;0.28;;;23.10;99.90;;;;;;4977290;28;20502;-87
2023/07/28 09:12:06;;;;;;;2.22;0.52;;;23.30;99.90;;;;;;4994059;28;20069;-88
2023/07/28 09:14:36;;;;;;;0.60;0.20;;;23.20;99.90;;;;;;4978366;28;20049;-88
2023/07/28 09:17:18;;;;;;;4.53;3.25;;;23.10;99.90;;;;;;4977511;28;20046;-88
2023/07/28 09:19:56;;;;;;;17.52;9.63;;;22.90;99.90;;;;;;4978686;28;20046;-87
2023/07/28 09:22:22;;;;;;;0.40;0.30;;;22.90;99.90;;;;;;4991456;28;20073;-87
2023/07/28 09:24:50;;;;;;;0.50;0.17;;;23.20;99.90;;;;;;4994501;28;20117;-87
2023/07/28 09:27:24;;;;;;;0.45;0.30;;;23.40;99.90;;;;;;4993039;28;20038;-88
2023/07/28 09:29:51;;;;;;;0.55;0.20;;;23.50;99.90;;;;;;4978717;28;20129;-88
2023/07/28 09:32:30;;;;;;;0.75;0.45;;;23.50;99.90;;;;;;4977763;28;20406;-88
2023/07/28 09:35:10;;;;;;;0.68;0.32;;;23.40;99.90;;;;;;4994716;28;20475;-88
2023/07/28 09:37:50;;;;;;;0.65;0.30;;;23.30;99.90;;;;;;4976420;28;20046;-88
2023/07/28 09:40:27;;;;;;;0.45;0.30;;;23.20;99.90;;;;;;4976707;28;20106;-88
2023/07/28 09:42:54;;;;;;;1.13;0.20;;;23.20;99.90;;;;;;4976933;28;20498;-88
2023/07/28 09:45:21;;;;;;;0.65;0.25;;;23.00;99.90;;;;;;4996662;28;20038;-87
2023/07/28 09:47:51;;;;;;;0.30;0.20;;;22.90;99.90;;;;;;4994274;28;20053;-87
2023/07/28 09:50:22;;;;;;;0.52;0.20;;;22.70;99.90;;;;;;4995069;28;20047;-87
2023/07/28 09:52:53;;;;;;;0.73;0.20;;;22.50;99.90;;;;;;4978625;28;20456;-88
2023/07/28 09:55:20;;;;;;;0.45;0.20;;;22.50;99.90;;;;;;4978726;28;20049;-88
2023/07/28 09:57:51;;;;;;;0.20;0.20;;;22.50;99.90;;;;;;4981653;28;20400;-88
2023/07/28 10:00:18;;;;;;;0.40;0.30;;;22.60;99.90;;;;;;4975276;28;20045;-88
2023/07/28 10:02:45;;;;;;;0.40;0.30;;;22.90;99.90;;;;;;4993982;28;20184;-88
2023/07/28 10:05:11;;;;;;;0.60;0.35;;;23.30;99.90;;;;;;4973780;28;20042;-88
2023/07/28 10:07:40;;;;;;;0.50;0.38;;;23.60;99.90;;;;;;4977733;28;20053;-89
2023/07/28 10:10:09;;;;;;;2.75;0.50;;;23.60;99.90;;;;;;4993833;28;20425;-87
2023/07/28 10:12:51;;;;;;;0.68;0.30;;;23.80;99.90;;;;;;4977126;28;20066;-87
2023/07/28 10:15:19;;;;;;;1.13;0.30;;;24.10;99.90;;;;;;4976117;28;20046;-88
2023/07/28 10:17:50;;;;;;;4.50;1.63;;;24.40;99.90;;;;;;4993860;28;20074;-88
2023/07/28 10:20:51;;;;;;;0.57;0.28;;;24.70;99.90;;;;;;4993764;28;20084;-88
2023/07/28 10:23:24;;;;;;;0.95;0.30;;;25.00;99.90;;;;;;4960350;28;20065;-88
2023/07/28 10:26:01;;;;;;;0.65;0.30;;;25.30;99.90;;;;;;5006568;28;20119;-88
2023/07/28 10:28:38;;;;;;;0.20;0.20;;;25.40;99.90;;;;;;4979738;28;20046;-88
2023/07/28 10:31:06;;;;;;;0.85;0.50;;;25.20;99.90;;;;;;4973738;28;20046;-88
2023/07/28 10:33:45;;;;;;;1.98;0.40;;;25.10;99.90;;;;;;4973121;28;20039;-88
2023/07/28 10:36:22;;;;;;;0.63;0.30;;;25.20;99.90;;;;;;4984033;28;20043;-88
2023/07/28 10:39:00;;;;;;;0.90;0.35;;;25.30;99.90;;;;;;4993718;28;20302;-88
2023/07/28 10:41:26;;;;;;;0.25;0.20;;;25.50;99.90;;;;;;4975954;28;20491;-88
2023/07/28 10:43:52;;;;;;;0.57;0.20;;;25.30;99.90;;;;;;4984012;28;20062;-88
2023/07/28 10:46:21;;;;;;;0.30;0.30;;;25.30;99.90;;;;;;4992336;28;20048;-88
2023/07/28 10:48:49;;;;;;;1.95;0.47;;;25.40;99.90;;;;;;4976545;28;20085;-88
2023/07/28 10:51:28;;;;;;;0.85;0.40;;;25.20;99.90;;;;;;4976327;28;20061;-88
2023/07/28 10:53:57;;;;;;;1.27;0.50;;;25.20;99.90;;;;;;4976233;28;20045;-88
2023/07/28 10:56:24;;;;;;;7.60;5.35;;;25.40;99.90;;;;;;4993388;28;20041;-89
2023/07/28 10:59:04;;;;;;;16.52;9.48;;;25.60;99.90;;;;;;4993711;28;20054;-88
2023/07/28 11:01:39;;;;;;;0.70;0.55;;;25.80;99.90;;;;;;4972538;28;20092;-88
2023/07/28 11:04:19;;;;;;;0.75;0.43;;;25.90;99.90;;;;;;4977075;28;20046;-88
2023/07/28 11:06:49;;;;;;;0.50;0.28;;;25.80;99.90;;;;;;4994704;28;20116;-88
2023/07/28 11:09:18;;;;;;;1.48;0.43;;;25.60;99.90;;;;;;4974384;28;20046;-88
2023/07/28 11:11:45;;;;;;;0.50;0.28;;;25.40;99.90;;;;;;4977432;28;20093;-88
2023/07/28 11:14:11;;;;;;;0.60;0.28;;;25.30;99.90;;;;;;4976969;28;20129;-88
2023/07/28 11:16:41;;;;;;;0.55;0.40;;;25.30;99.90;;;;;;4974573;28;20554;-89
2023/07/28 11:19:11;;;;;;;0.73;0.45;;;25.60;99.90;;;;;;4992843;28;20101;-89
2023/07/28 11:21:41;;;;;;;0.82;0.45;;;25.80;99.90;;;;;;4992778;28;20039;-87
2023/07/28 11:24:11;;;;;;;0.40;0.28;;;25.90;99.90;;;;;;4977865;28;20046;-88
2023/07/28 11:26:39;;;;;;;0.93;0.50;;;26.10;99.90;;;;;;4974842;28;20060;-89
2023/07/28 11:29:05;;;;;;;2.70;0.50;;;26.00;99.90;;;;;;4976764;28;20042;-88
2023/07/28 11:31:33;;;;;;;0.70;0.30;;;25.80;99.90;;;;;;4992023;28;20417;-88
2023/07/28 11:33:59;;;;;;;1.73;0.28;;;25.70;99.90;;;;;;4977237;28;20046;-88
2023/07/28 11:36:26;;;;;;;1.00;0.40;;;25.50;99.90;;;;;;4992418;28;20108;-88
2023/07/28 11:38:54;;;;;;;3.40;2.17;;;25.10;99.90;;;;;;4968155;28;20125;-89
2023/07/28 11:41:21;;;;;;;4.30;2.58;;;24.70;99.90;;;;;;4974543;28;20081;-87
2023/07/28 11:43:50;;;;;;;1.15;0.55;;;24.20;99.90;;;;;;4981744;28;20294;-88
2023/07/28 11:46:39;;;;;;;1.63;0.80;;;23.80;99.90;;;;;;4975583;28;20038;-88
2023/07/28 11:49:13;;;;;;;0.88;0.60;;;23.90;99.90;;;;;;4975352;28;20046;-89
2023/07/28 11:51:43;;;;;;;1.13;0.60;;;24.30;99.90;;;;;;4991145;28;20050;-89
2023/07/28 11:54:19;;;;;;;5.40;0.82;;;24.60;99.90;;;;;;4992856;28;20406;-89
2023/07/28 11:56:46;;;;;;;0.75;0.57;;;24.80;99.90;;;;;;4992101;28;20045;-88
2023/07/28 11:59:22;;;;;;;1.60;0.52;;;24.90;99.90;;;;;;4976969;28;20470;-88
2023/07/28 12:01:55;;;;;;;1.23;0.55;;;24.90;99.90;;;;;;5008034;28;20038;-89
2023/07/28 12:04:29;;;;;;;0.88;0.40;;;24.90;99.90;;;;;;4991787;28;20961;-89
2023/07/28 12:07:16;;;;;;;0.63;0.40;;;25.10;99.90;;;;;;4973971;28;20059;-89
2023/07/28 12:10:00;;;;;;;0.77;0.40;;;25.60;99.90;;;;;;4991036;28;20105;-89
2023/07/28 12:12:31;;;;;;;0.70;0.30;;;26.00;99.90;;;;;;4971973;28;20057;-89
2023/07/28 12:15:04;;;;;;;0.75;0.40;;;26.20;99.90;;;;;;4975149;28;20623;-89
2023/07/28 12:17:30;;;;;;;0.65;0.35;;;26.10;99.90;;;;;;4973670;28;20526;-88
2023/07/28 12:20:10;;;;;;;0.68;0.30;;;26.10;99.90;;;;;;4992418;28;20359;-88
2023/07/28 12:22:38;;;;;;;6.40;4.00;;;26.50;99.90;;;;;;4992663;28;20052;-88
2023/07/28 12:25:04;;;;;;;2.75;1.42;;;26.70;99.90;;;;;;4974439;28;20372;-89
2023/07/28 12:27:31;;;;;;;1.02;0.45;;;26.60;99.90;;;;;;4991984;28;20053;-88
2023/07/28 12:29:57;;;;;;;0.75;0.47;;;26.10;99.90;;;;;;4992867;28;20522;-88
2023/07/28 12:32:23;;;;;;;0.73;0.50;;;25.60;99.90;;;;;;5007985;28;20048;-88
2023/07/28 12:34:50;;;;;;;0.80;0.28;;;25.10;99.90;;;;;;4980383;28;20038;-87
2023/07/28 12:37:16;;;;;;;0.77;0.40;;;24.80;99.90;;;;;;4992747;28;20486;-84
2023/07/28 12:39:44;;;;;;;1.08;0.50;;;24.60;99.90;;;;;;4973709;28;20963;-84
2023/07/28 12:42:11;;;;;;;0.82;0.40;;;24.40;99.90;;;;;;4993423;28;20046;-84
2023/07/28 12:44:38;;;;;;;1.60;0.43;;;24.40;99.90;;;;;;4993512;28;20475;-84
2023/07/28 12:47:04;;;;;;;0.52;0.35;;;24.60;99.90;;;;;;4974919;28;20073;-86